Sangary, Russia
Current Conditions -  °F | °C
As of 9:30 AM on Sunday 26 Oct 2014 (Local Time) from UEEE Reporting Station
Clear Clear  
Wind Chill: -4°   Ceiling: Unl
Heat Index:   Visibility: 6mi
Dew Point:   Wind: 4mph
Humidity: 85%   Direction: 220°SW
Pressure: 30.5"   Gusts: NA
Location:  63.97°N, 127.47°E
Report Text: UEEE 260030Z 22002MPS CAVOK M15/M17 Q1033 NOSIG RMK QFE76623490150
Loading
Personal Weather Stations






























Interactive Weather Map
Tropical Storm Tracking
New forecast layout! Learn more

10-Day Weather Forecast

Advertisements
Track Severe Weather on mobile